Time;durP1;ratioP1;P1;durP2;ratioP2;P2;SDS_P1;SDS_P2;PMS_P1;PMS_P2;Temp;Humidity;BMP_temperature;BMP_pressure;BME280_temperature;BME280_humidity;BME280_pressure;Samples;Min_cycle;Max_cycle;Signal;HPM_P1;HPM_P2
2021/12/04 00:00:11;;;;;;;8.07;4.97;;;;;;;;;;20910015;28;20139;-62
2021/12/04 00:10:18;;;;;;;9.15;5.05;;;;;;;;;;20911094;28;20052;-63
2021/12/04 00:20:23;;;;;;;11.00;5.93;;;;;;;;;;20909962;28;20066;-65
2021/12/04 00:30:26;;;;;;;11.93;6.80;;;;;;;;;;20912131;28;20049;-62
2021/12/04 00:51:03;;;;;;;20.30;6.95;;;;;;;;;;20917556;28;20060;-63
2021/12/04 01:01:05;;;;;;;11.45;7.18;;;;;;;;;;20916841;28;20095;-63
2021/12/04 01:11:07;;;;;;;8.68;6.28;;;;;;;;;;20915995;28;20481;-62
2021/12/04 01:21:09;;;;;;;8.65;5.53;;;;;;;;;;20918924;28;20048;-62
2021/12/04 01:31:12;;;;;;;8.35;6.03;;;;;;;;;;20928329;28;20098;-61
2021/12/04 01:41:14;;;;;;;11.32;5.65;;;;;;;;;;20923164;28;20071;-64
2021/12/04 01:51:17;;;;;;;11.02;5.35;;;;;;;;;;20922744;28;20414;-63
2021/12/04 02:01:19;;;;;;;7.70;5.10;;;;;;;;;;20920977;28;20045;-62
2021/12/04 02:11:21;;;;;;;4.40;2.95;;;;;;;;;;20918616;28;20079;-62
2021/12/04 02:21:26;;;;;;;8.00;4.35;;;;;;;;;;20917135;28;20478;-61
2021/12/04 02:31:28;;;;;;;7.65;4.03;;;;;;;;;;20916153;28;20502;-64
2021/12/04 02:41:30;;;;;;;8.70;3.45;;;;;;;;;;20916128;28;20057;-61
2021/12/04 02:51:35;;;;;;;9.85;5.38;;;;;;;;;;20914931;28;20053;-61
2021/12/04 03:01:38;;;;;;;10.80;5.22;;;;;;;;;;20914116;28;20045;-63
2021/12/04 03:11:41;;;;;;;11.93;6.30;;;;;;;;;;20912862;28;20071;-61
2021/12/04 03:21:46;;;;;;;9.75;6.10;;;;;;;;;;20913190;28;20049;-62
2021/12/04 03:41:58;;;;;;;9.75;6.38;;;;;;;;;;20911370;28;20052;-66
2021/12/04 03:52:02;;;;;;;10.73;5.93;;;;;;;;;;20911109;28;20581;-67
2021/12/04 04:02:07;;;;;;;10.10;5.90;;;;;;;;;;20911057;28;20087;-61
2021/12/04 04:12:11;;;;;;;8.00;4.83;;;;;;;;;;20910536;28;20048;-62
2021/12/04 04:22:33;;;;;;;5.28;2.88;;;;;;;;;;20920196;28;20052;-62
2021/12/04 04:32:55;;;;;;;4.57;2.78;;;;;;;;;;20926562;28;20049;-59
2021/12/04 05:14:44;;;;;;;5.32;2.45;;;;;;;;;;20922623;28;20048;-62
2021/12/04 05:24:47;;;;;;;7.95;4.20;;;;;;;;;;20920143;28;20051;-62
2021/12/04 05:34:50;;;;;;;4.43;3.35;;;;;;;;;;20920196;28;20052;-62
2021/12/04 05:44:54;;;;;;;4.07;3.05;;;;;;;;;;20919370;28;20045;-62
2021/12/04 05:55:09;;;;;;;5.20;3.45;;;;;;;;;;20918923;28;20446;-61
2021/12/04 06:05:11;;;;;;;4.37;3.60;;;;;;;;;;20916757;28;20080;-60
2021/12/04 06:15:14;;;;;;;7.50;4.28;;;;;;;;;;20917385;28;20099;-62
2021/12/04 06:25:19;;;;;;;2.20;1.20;;;;;;;;;;20915507;28;20044;-61
2021/12/04 06:35:23;;;;;;;2.40;0.68;;;;;;;;;;20915787;28;20144;-61
2021/12/04 06:45:27;;;;;;;2.25;0.90;;;;;;;;;;20914480;28;20136;-63
2021/12/04 06:55:37;;;;;;;4.00;1.92;;;;;;;;;;20912997;28;20059;-61
2021/12/04 07:05:39;;;;;;;3.38;1.80;;;;;;;;;;20913900;28;20128;-61
2021/12/04 07:15:45;;;;;;;2.20;1.17;;;;;;;;;;20913431;28;20055;-61
2021/12/04 07:25:47;;;;;;;1.40;0.70;;;;;;;;;;20912983;28;20049;-61
2021/12/04 07:35:50;;;;;;;0.77;0.57;;;;;;;;;;20912554;28;20052;-63
2021/12/04 07:45:53;;;;;;;2.53;1.25;;;;;;;;;;20912031;28;20056;-63
2021/12/04 07:55:55;;;;;;;2.40;1.30;;;;;;;;;;20921248;28;20135;-62
2021/12/04 08:05:58;;;;;;;3.38;1.13;;;;;;;;;;20927000;28;20041;-63
2021/12/04 08:16:00;;;;;;;3.80;1.90;;;;;;;;;;20926640;28;20056;-62
2021/12/04 08:26:02;;;;;;;3.53;1.80;;;;;;;;;;20926716;28;20044;-66
2021/12/04 08:36:08;;;;;;;5.22;2.38;;;;;;;;;;20926018;28;20121;-65
2021/12/04 08:46:10;;;;;;;13.52;5.32;;;;;;;;;;20923666;28;20045;-66
2021/12/04 08:56:16;;;;;;;10.90;6.40;;;;;;;;;;20923048;28;20091;-62
2021/12/04 09:06:20;;;;;;;10.60;7.03;;;;;;;;;;20922321;28;20118;-63
2021/12/04 09:16:24;;;;;;;17.45;9.70;;;;;;;;;;20922452;28;20107;-63
2021/12/04 09:26:56;;;;;;;10.25;5.40;;;;;;;;;;20922462;28;20045;-62
2021/12/04 10:38:45;;;;;;;7.53;3.08;;;;;;;;;;20886996;28;20044;-62
2021/12/04 10:48:51;;;;;;;6.70;2.57;;;;;;;;;;20903439;28;20102;-57
2021/12/04 11:50:40;;;;;;;8.13;4.80;;;;;;;;;;20910701;28;20403;-57
2021/12/04 12:00:43;;;;;;;6.60;4.35;;;;;;;;;;20910085;28;20053;-52
2021/12/04 12:10:49;;;;;;;5.60;3.55;;;;;;;;;;20910447;28;20053;-57
2021/12/04 12:20:58;;;;;;;5.78;3.58;;;;;;;;;;20910606;28;20060;-58
2021/12/04 12:41:22;;;;;;;8.40;6.15;;;;;;;;;;20915873;28;20083;-60
2021/12/04 12:51:28;;;;;;;10.73;6.25;;;;;;;;;;20923747;28;20505;-66
2021/12/04 13:12:01;;;;;;;5.75;3.15;;;;;;;;;;20923135;28;20056;-61
2021/12/04 13:22:06;;;;;;;6.80;3.05;;;;;;;;;;20920346;28;20099;-57
2021/12/04 13:32:10;;;;;;;5.97;3.53;;;;;;;;;;20920157;28;20474;-59
2021/12/04 13:42:13;;;;;;;4.70;2.97;;;;;;;;;;20919641;28;20302;-58
2021/12/04 13:52:15;;;;;;;11.52;5.55;;;;;;;;;;20918116;28;20107;-60
2021/12/04 14:02:21;;;;;;;5.78;3.30;;;;;;;;;;20918703;28;20455;-60
2021/12/04 14:12:25;;;;;;;6.60;3.60;;;;;;;;;;20918160;28;20048;-65
2021/12/04 14:22:28;;;;;;;6.75;3.47;;;;;;;;;;20917837;28;20045;-60
2021/12/04 14:32:32;;;;;;;5.00;3.50;;;;;;;;;;20917464;28;20500;-66
2021/12/04 14:42:36;;;;;;;5.80;3.37;;;;;;;;;;20915270;28;20498;-65
2021/12/04 14:52:42;;;;;;;6.65;4.45;;;;;;;;;;20915331;28;20057;-60
2021/12/04 15:02:59;;;;;;;6.95;3.33;;;;;;;;;;20913757;28;20137;-61
2021/12/04 15:13:05;;;;;;;6.47;3.85;;;;;;;;;;20913843;28;20087;-60
2021/12/04 15:23:13;;;;;;;5.28;3.70;;;;;;;;;;20912158;28;20049;-60
2021/12/04 15:33:45;;;;;;;4.60;3.15;;;;;;;;;;20912988;28;20049;-60
2021/12/04 15:44:18;;;;;;;5.43;3.05;;;;;;;;;;20903232;28;20175;-61
2021/12/04 15:54:25;;;;;;;3.55;2.30;;;;;;;;;;20901912;28;20080;-58
2021/12/04 16:04:27;;;;;;;6.38;2.95;;;;;;;;;;20902497;28;20328;-61
2021/12/04 16:14:31;;;;;;;5.95;2.72;;;;;;;;;;20910140;28;20081;-57
2021/12/04 16:24:33;;;;;;;4.15;2.53;;;;;;;;;;20926711;28;20057;-58
2021/12/04 16:44:55;;;;;;;5.72;4.07;;;;;;;;;;20925012;28;20053;-57
2021/12/04 16:55:17;;;;;;;4.07;2.83;;;;;;;;;;20924330;28;20053;-59
2021/12/04 17:05:19;;;;;;;7.22;4.32;;;;;;;;;;20923819;28;20406;-58
2021/12/04 17:15:21;;;;;;;4.95;3.45;;;;;;;;;;20921965;28;20095;-69
2021/12/04 17:25:23;;;;;;;5.05;3.70;;;;;;;;;;20921348;28;20483;-59
2021/12/04 17:35:25;;;;;;;6.22;3.30;;;;;;;;;;20921071;28;20053;-59
2021/12/04 17:45:27;;;;;;;6.10;3.25;;;;;;;;;;20920583;28;20075;-58
2021/12/04 17:55:30;;;;;;;5.43;3.83;;;;;;;;;;20920302;28;20056;-59
2021/12/04 18:05:33;;;;;;;4.68;3.17;;;;;;;;;;20919660;28;20045;-63
2021/12/04 18:15:37;;;;;;;6.40;4.32;;;;;;;;;;20918622;28;20057;-59
2021/12/04 18:25:39;;;;;;;7.25;4.80;;;;;;;;;;20918255;28;20052;-61
2021/12/04 18:35:41;;;;;;;7.82;5.40;;;;;;;;;;20916120;28;20506;-59
2021/12/04 18:45:42;;;;;;;8.57;6.80;;;;;;;;;;20915610;28;20179;-67
2021/12/04 18:55:44;;;;;;;9.68;7.03;;;;;;;;;;20914860;28;20102;-60
2021/12/04 19:05:47;;;;;;;5.75;4.03;;;;;;;;;;20913883;28;20076;-58
2021/12/04 19:15:49;;;;;;;8.02;5.50;;;;;;;;;;20911305;28;20410;-59
2021/12/04 19:25:51;;;;;;;7.32;4.43;;;;;;;;;;20911525;28;20053;-59
2021/12/04 19:56:38;;;;;;;6.80;5.00;;;;;;;;;;20910489;28;20453;-61
2021/12/04 20:16:53;;;;;;;6.53;4.18;;;;;;;;;;20911105;28;20060;-72
2021/12/04 20:27:01;;;;;;;7.43;5.00;;;;;;;;;;20911443;28;20103;-60
2021/12/04 21:39:28;;;;;;;6.03;4.95;;;;;;;;;;20921361;28;20049;-74
2021/12/04 22:10:00;;;;;;;6.47;5.68;;;;;;;;;;20918869;28;20048;-62
2021/12/04 23:01:17;;;;;;;10.88;7.57;;;;;;;;;;20915203;28;20487;-60
2021/12/04 23:11:23;;;;;;;12.00;9.25;;;;;;;;;;20914544;28;20457;-65
